Lakeland, Florida
Current Conditions -  °F | °C
As of 7:51 PM on Sunday 21 Dec 2014 (Local Time) from KLAL Reporting Station
Overcast Overcast  
Wind Chill: 66°   Ceiling: 10000
Heat Index: 66°   Visibility: 10mi
Dew Point: 64°   Wind: 6mph
Humidity: 94%   Direction: 60°ENE
Pressure: 30.03"   Gusts: NA
Location:  28.04°N, 81.95°W
Report Text: KLAL 220051Z 06005KT 10SM SCT033 OVC100 19/18 A3003
Loading
Personal Weather Stations






























Interactive Weather Map New forecast layout! Learn more

10-Day Weather Forecast

Advertisements
Track Severe Weather on mobile